Time;durP1;ratioP1;P1;durP2;ratioP2;P2;SDS_P1;SDS_P2;PMS_P1;PMS_P2;Temp;Humidity;BMP_temperature;BMP_pressure;BME280_temperature;BME280_humidity;BME280_pressure;Samples;Min_cycle;Max_cycle;Signal;HPM_P1;HPM_P2
2019/11/02 00:02:08;;;;;;;1.1;0.9;;;;;;;;;;;;;
2019/11/02 00:06:58;;;;;;;1.5;1.1;;;;;;;;;;;;;
2019/11/02 00:09:23;;;;;;;1.9;1.2;;;;;;;;;;;;;
2019/11/02 00:11:48;;;;;;;1.4;1;;;;;;;;;;;;;
2019/11/02 00:14:13;;;;;;;1.7;1;;;;;;;;;;;;;
2019/11/02 00:16:38;;;;;;;1.2;1.1;;;;;;;;;;;;;
2019/11/02 00:19:03;;;;;;;1.5;1;;;;;;;;;;;;;
2019/11/02 00:21:29;;;;;;;1.1;0.9;;;;;;;;;;;;;
2019/11/02 00:23:54;;;;;;;1.3;1.1;;;;;;;;;;;;;
2019/11/02 00:26:19;;;;;;;1.1;1;;;;;;;;;;;;;
2019/11/02 00:28:44;;;;;;;1.6;1.1;;;;;;;;;;;;;
2019/11/02 00:31:09;;;;;;;1.4;1;;;;;;;;;;;;;
2019/11/02 00:33:34;;;;;;;1.5;1.2;;;;;;;;;;;;;
2019/11/02 00:35:59;;;;;;;1.9;1.4;;;;;;;;;;;;;
2019/11/02 00:38:25;;;;;;;1.6;1.2;;;;;;;;;;;;;
2019/11/02 00:40:50;;;;;;;1.6;1;;;;;;;;;;;;;
2019/11/02 00:43:15;;;;;;;1.3;1.1;;;;;;;;;;;;;
2019/11/02 00:45:40;;;;;;;1.1;1;;;;;;;;;;;;;
2019/11/02 00:48:05;;;;;;;1.8;1;;;;;;;;;;;;;
2019/11/02 00:50:31;;;;;;;3.3;1.1;;;;;;;;;;;;;
2019/11/02 00:52:55;;;;;;;1.8;1.2;;;;;;;;;;;;;
2019/11/02 00:55:20;;;;;;;1.6;1.3;;;;;;;;;;;;;
2019/11/02 00:57:45;;;;;;;1.2;1.1;;;;;;;;;;;;;
2019/11/02 01:00:10;;;;;;;2.5;1.1;;;;;;;;;;;;;
2019/11/02 01:02:36;;;;;;;2.1;1;;;;;;;;;;;;;
2019/11/02 01:05:01;;;;;;;1.6;1.1;;;;;;;;;;;;;
2019/11/02 01:07:26;;;;;;;1.3;1.1;;;;;;;;;;;;;
2019/11/02 01:09:51;;;;;;;1.3;1.1;;;;;;;;;;;;;
2019/11/02 01:12:16;;;;;;;3;1.2;;;;;;;;;;;;;
2019/11/02 01:14:41;;;;;;;1.8;1.3;;;;;;;;;;;;;
2019/11/02 01:17:06;;;;;;;1.3;1.2;;;;;;;;;;;;;
2019/11/02 01:19:31;;;;;;;1.7;1.1;;;;;;;;;;;;;
2019/11/02 01:21:57;;;;;;;2.2;1.2;;;;;;;;;;;;;
2019/11/02 01:24:21;;;;;;;1.8;1.2;;;;;;;;;;;;;
2019/11/02 01:26:47;;;;;;;1.5;1.4;;;;;;;;;;;;;
2019/11/02 01:29:12;;;;;;;2.3;1.2;;;;;;;;;;;;;
2019/11/02 01:31:37;;;;;;;1.3;1.1;;;;;;;;;;;;;
2019/11/02 01:34:02;;;;;;;1.7;1.3;;;;;;;;;;;;;
2019/11/02 01:36:27;;;;;;;3;1.4;;;;;;;;;;;;;
2019/11/02 01:38:52;;;;;;;2.9;1.4;;;;;;;;;;;;;
2019/11/02 01:41:17;;;;;;;2;1.4;;;;;;;;;;;;;
2019/11/02 01:43:42;;;;;;;2.3;1.4;;;;;;;;;;;;;
2019/11/02 01:46:07;;;;;;;2.2;1.4;;;;;;;;;;;;;
2019/11/02 01:48:32;;;;;;;1.7;1.3;;;;;;;;;;;;;
2019/11/02 01:50:57;;;;;;;3.2;1.3;;;;;;;;;;;;;
2019/11/02 01:53:23;;;;;;;2.1;1.2;;;;;;;;;;;;;
2019/11/02 01:55:47;;;;;;;2.1;1.3;;;;;;;;;;;;;
2019/11/02 01:58:13;;;;;;;1.9;1.3;;;;;;;;;;;;;
2019/11/02 02:00:38;;;;;;;1.7;1.2;;;;;;;;;;;;;
2019/11/02 02:03:04;;;;;;;1.5;1.2;;;;;;;;;;;;;
2019/11/02 02:05:34;;;;;;;2;1.4;;;;;;;;;;;;;
2019/11/02 02:07:53;;;;;;;1.3;1;;;;;;;;;;;;;
2019/11/02 02:10:18;;;;;;;1.7;1.3;;;;;;;;;;;;;
2019/11/02 02:12:43;;;;;;;1.4;1.2;;;;;;;;;;;;;
2019/11/02 02:15:08;;;;;;;1.7;1.5;;;;;;;;;;;;;
2019/11/02 02:17:33;;;;;;;1.2;1.1;;;;;;;;;;;;;
2019/11/02 02:19:58;;;;;;;1.3;1.1;;;;;;;;;;;;;
2019/11/02 02:22:23;;;;;;;2.1;1;;;;;;;;;;;;;
2019/11/02 02:24:49;;;;;;;1;0.9;;;;;;;;;;;;;
2019/11/02 02:27:14;;;;;;;1.4;1;;;;;;;;;;;;;
2019/11/02 02:29:39;;;;;;;1.7;1.1;;;;;;;;;;;;;
2019/11/02 02:32:04;;;;;;;1.4;1.1;;;;;;;;;;;;;
2019/11/02 02:34:29;;;;;;;1.2;0.9;;;;;;;;;;;;;
2019/11/02 02:36:54;;;;;;;2.4;1.1;;;;;;;;;;;;;
2019/11/02 02:39:19;;;;;;;1.5;0.9;;;;;;;;;;;;;
2019/11/02 02:41:44;;;;;;;1.4;0.9;;;;;;;;;;;;;
2019/11/02 02:44:09;;;;;;;1.2;1;;;;;;;;;;;;;
2019/11/02 02:46:35;;;;;;;0.9;0.8;;;;;;;;;;;;;
2019/11/02 02:49:00;;;;;;;0.6;0.6;;;;;;;;;;;;;
2019/11/02 02:51:25;;;;;;;1.1;1;;;;;;;;;;;;;
2019/11/02 02:53:50;;;;;;;1.6;0.9;;;;;;;;;;;;;
2019/11/02 02:56:15;;;;;;;1.1;1;;;;;;;;;;;;;
2019/11/02 02:58:40;;;;;;;1.1;1;;;;;;;;;;;;;
2019/11/02 03:01:05;;;;;;;2.1;1.1;;;;;;;;;;;;;
2019/11/02 03:03:31;;;;;;;2;1;;;;;;;;;;;;;
2019/11/02 03:05:55;;;;;;;2.9;1.1;;;;;;;;;;;;;
2019/11/02 03:08:21;;;;;;;2;1.3;;;;;;;;;;;;;
2019/11/02 03:10:46;;;;;;;2.7;1;;;;;;;;;;;;;
2019/11/02 03:13:11;;;;;;;2.7;1;;;;;;;;;;;;;
2019/11/02 03:15:36;;;;;;;1.7;0.8;;;;;;;;;;;;;
2019/11/02 03:18:01;;;;;;;1;0.9;;;;;;;;;;;;;
2019/11/02 03:20:26;;;;;;;1.8;0.8;;;;;;;;;;;;;
2019/11/02 03:22:51;;;;;;;1.5;0.8;;;;;;;;;;;;;
2019/11/02 03:25:16;;;;;;;0.7;0.7;;;;;;;;;;;;;
2019/11/02 03:27:41;;;;;;;1.6;0.8;;;;;;;;;;;;;
2019/11/02 03:30:06;;;;;;;1.3;0.7;;;;;;;;;;;;;
2019/11/02 03:32:32;;;;;;;1.2;0.8;;;;;;;;;;;;;
2019/11/02 03:34:56;;;;;;;0.9;0.7;;;;;;;;;;;;;
2019/11/02 03:37:22;;;;;;;3.5;0.7;;;;;;;;;;;;;
2019/11/02 03:39:47;;;;;;;1;0.7;;;;;;;;;;;;;
2019/11/02 03:42:12;;;;;;;0.9;0.6;;;;;;;;;;;;;
2019/11/02 03:44:37;;;;;;;0.8;0.7;;;;;;;;;;;;;
2019/11/02 03:47:02;;;;;;;1.3;0.7;;;;;;;;;;;;;
2019/11/02 03:49:27;;;;;;;0.9;0.7;;;;;;;;;;;;;
2019/11/02 03:51:52;;;;;;;1.4;0.7;;;;;;;;;;;;;
2019/11/02 03:54:18;;;;;;;0.7;0.7;;;;;;;;;;;;;
2019/11/02 03:56:43;;;;;;;1.2;0.7;;;;;;;;;;;;;
2019/11/02 03:59:08;;;;;;;0.9;0.6;;;;;;;;;;;;;
2019/11/02 04:02:28;;;;;;;1.6;0.7;;;;;;;14.61;96.54688;984.4222;;;;
2019/11/02 04:04:53;;;;;;;1.4;0.7;;;;;;;14.56;96.98535;984.4086;;;;
2019/11/02 04:07:18;;;;;;;1.6;0.7;;;;;;;14.55;96.89355;984.4086;;;;
2019/11/02 04:09:43;;;;;;;0.7;0.7;;;;;;;14.5;97.16992;984.4147;;;;
2019/11/02 04:12:08;;;;;;;0.7;0.7;;;;;;;14.52;96.95703;984.4312;;;;
2019/11/02 04:14:33;;;;;;;0.9;0.7;;;;;;;14.6;96.75293;984.4324;;;;
2019/11/02 04:16:58;;;;;;;0.8;0.7;;;;;;;14.58;96.89941;984.4215;;;;
2019/11/02 04:21:48;;;;;;;0.8;0.7;;;;;;;14.47;97.58008;984.3447;;;;
2019/11/02 04:24:13;;;;;;;1.7;0.8;;;;;;;14.58;97.26953;984.3608;;;;
2019/11/02 04:26:39;;;;;;;0.7;0.6;;;;;;;14.64;96.66895;984.3837;;;;
2019/11/02 04:29:04;;;;;;;0.6;0.6;;;;;;;14.69;96.14941;984.3627;;;;
2019/11/02 04:31:29;;;;;;;1;0.7;;;;;;;14.63;96.49512;984.2997;;;;
2019/11/02 04:33:54;;;;;;;1;0.7;;;;;;;14.7;96.02344;984.3337;;;;
2019/11/02 04:36:19;;;;;;;1.3;0.6;;;;;;;14.81;95.37695;984.302;;;;
2019/11/02 04:38:44;;;;;;;0.9;0.7;;;;;;;14.83;94.8623;984.2761;;;;
2019/11/02 04:42:13;;;;;;;0.8;0.6;;;;;;;14.82;94.80273;984.2595;;;;
2019/11/02 04:44:38;;;;;;;1.1;0.6;;;;;;;14.9;94.20801;984.2544;;;;
2019/11/02 04:47:03;;;;;;;0.5;0.5;;;;;;;14.95;93.78906;984.158;;;;
2019/11/02 04:49:29;;;;;;;0.9;0.5;;;;;;;14.92;93.85156;984.1092;;;;
2019/11/02 04:51:54;;;;;;;1.1;0.7;;;;;;;14.97;93.49219;984.0803;;;;
2019/11/02 04:54:19;;;;;;;1.4;0.6;;;;;;;14.99;93.39453;984.0466;;;;
2019/11/02 04:57:43;;;;;;;0.9;0.6;;;;;;;15.01;93.23633;983.9916;;;;
2019/11/02 05:00:08;;;;;;;0.5;0.5;;;;;;;15.02;92.90234;983.9678;;;;
2019/11/02 05:02:33;;;;;;;0.6;0.6;;;;;;;15.08;92.70605;983.9233;;;;
2019/11/02 05:04:58;;;;;;;0.6;0.6;;;;;;;15.06;92.8291;983.9667;;;;
2019/11/02 05:07:23;;;;;;;0.9;0.5;;;;;;;15.02;92.9707;983.8826;;;;
2019/11/02 05:09:48;;;;;;;0.6;0.6;;;;;;;15.1;92.41113;983.8336;;;;
2019/11/02 05:12:18;;;;;;;0.7;0.5;;;;;;;15.27;91.44043;983.7177;;;;
2019/11/02 05:14:38;;;;;;;1.5;0.6;;;;;;;15.21;91.83203;983.7137;;;;
2019/11/02 05:17:04;;;;;;;0.5;0.5;;;;;;;15.27;91.12793;983.7399;;;;
2019/11/02 05:19:29;;;;;;;0.7;0.6;;;;;;;15.25;91.37891;983.7484;;;;
2019/11/02 05:21:54;;;;;;;1.2;0.7;;;;;;;15.2;92.04785;983.7285;;;;
2019/11/02 05:24:19;;;;;;;0.9;0.5;;;;;;;15.27;91.9248;983.7665;;;;
2019/11/02 05:26:44;;;;;;;1.1;0.6;;;;;;;15.22;92.13477;983.6967;;;;
2019/11/02 05:29:09;;;;;;;0.8;0.6;;;;;;;15.12;93.00488;983.6934;;;;
2019/11/02 05:31:34;;;;;;;0.9;0.6;;;;;;;15.14;92.98535;983.7071;;;;
2019/11/02 05:34:00;;;;;;;1;0.7;;;;;;;15.05;93.38086;983.6595;;;;
2019/11/02 05:36:24;;;;;;;0.6;0.6;;;;;;;15.04;93.82031;983.6942;;;;
2019/11/02 05:38:49;;;;;;;0.5;0.5;;;;;;;15.07;93.2959;983.6128;;;;
2019/11/02 05:41:15;;;;;;;1.4;0.5;;;;;;;15.09;93.34375;983.5867;;;;
2019/11/02 05:43:40;;;;;;;0.5;0.5;;;;;;;15.2;92.47852;983.4877;;;;
2019/11/02 05:46:05;;;;;;;1.2;0.6;;;;;;;15.17;92.72656;983.505;;;;
2019/11/02 05:48:30;;;;;;;0.6;0.6;;;;;;;15.09;93.08008;983.4447;;;;
2019/11/02 05:50:55;;;;;;;0.6;0.5;;;;;;;15.18;92.55371;983.4161;;;;
2019/11/02 05:53:20;;;;;;;0.9;0.6;;;;;;;15.2;92.14258;983.3667;;;;
2019/11/02 05:55:45;;;;;;;1.2;0.6;;;;;;;15.2;92.13086;983.3855;;;;
2019/11/02 05:58:10;;;;;;;0.6;0.6;;;;;;;15.21;92.09863;983.3622;;;;
2019/11/02 06:00:35;;;;;;;0.9;0.6;;;;;;;15.13;91.91895;983.4147;;;;
2019/11/02 06:03:00;;;;;;;0.7;0.6;;;;;;;15.08;92.10645;983.4856;;;;
2019/11/02 06:05:25;;;;;;;0.6;0.5;;;;;;;15.07;92.21777;983.5302;;;;
2019/11/02 06:07:50;;;;;;;1.3;0.7;;;;;;;15.2;91.36719;983.5115;;;;
2019/11/02 06:10:15;;;;;;;1;0.5;;;;;;;15.24;91.16699;983.5126;;;;
2019/11/02 06:12:41;;;;;;;0.6;0.6;;;;;;;15.29;90.90039;983.5481;;;;
2019/11/02 06:15:06;;;;;;;1.2;0.7;;;;;;;15.28;90.93066;983.4993;;;;
2019/11/02 06:17:31;;;;;;;0.6;0.6;;;;;;;15.31;90.63965;983.5385;;;;
2019/11/02 06:19:56;;;;;;;0.8;0.6;;;;;;;15.4;90.07715;983.4575;;;;
2019/11/02 06:22:21;;;;;;;1.5;0.6;;;;;;;15.35;90.06641;983.5129;;;;
2019/11/02 06:24:47;;;;;;;0.6;0.6;;;;;;;15.32;90.44434;983.5033;;;;
2019/11/02 06:27:11;;;;;;;1;0.6;;;;;;;15.34;90.41309;983.5039;;;;
2019/11/02 06:29:36;;;;;;;1.1;0.6;;;;;;;15.33;90.2959;983.4358;;;;
2019/11/02 06:32:02;;;;;;;0.7;0.5;;;;;;;15.38;89.90039;983.4338;;;;
2019/11/02 06:34:27;;;;;;;0.9;0.7;;;;;;;15.46;89.46484;983.462;;;;
2019/11/02 06:36:52;;;;;;;1;0.6;;;;;;;15.42;89.65234;983.457;;;;
2019/11/02 06:39:17;;;;;;;0.9;0.7;;;;;;;15.41;89.69727;983.415;;;;
2019/11/02 06:41:42;;;;;;;0.7;0.7;;;;;;;15.39;90.00586;983.3996;;;;
2019/11/02 06:44:07;;;;;;;1.7;0.7;;;;;;;15.36;90.41699;983.4216;;;;
2019/11/02 06:46:32;;;;;;;1;0.7;;;;;;;15.29;90.91309;983.4164;;;;
2019/11/02 06:48:57;;;;;;;0.8;0.7;;;;;;;15.32;90.80176;983.413;;;;
2019/11/02 06:51:23;;;;;;;0.9;0.7;;;;;;;15.35;90.85352;983.3602;;;;
2019/11/02 06:53:48;;;;;;;0.9;0.7;;;;;;;15.28;91.02539;983.3318;;;;
2019/11/02 06:56:13;;;;;;;1;0.7;;;;;;;15.32;90.91895;983.3903;;;;
2019/11/02 06:58:38;;;;;;;0.6;0.6;;;;;;;15.28;91.41699;983.4283;;;;
2019/11/02 07:01:03;;;;;;;1.5;0.9;;;;;;;15.29;91.51563;983.4624;;;;
2019/11/02 07:03:28;;;;;;;0.9;0.7;;;;;;;15.31;91.45898;983.4517;;;;
2019/11/02 07:05:53;;;;;;;1.7;0.8;;;;;;;15.32;91.37012;983.4346;;;;
2019/11/02 07:08:18;;;;;;;1;0.7;;;;;;;15.2;91.8418;983.524;;;;
2019/11/02 07:10:43;;;;;;;0.7;0.7;;;;;;;15.22;91.92676;983.5541;;;;
2019/11/02 07:13:08;;;;;;;1.4;0.7;;;;;;;15.28;91.75293;983.5988;;;;
2019/11/02 07:15:33;;;;;;;1.5;0.7;;;;;;;15.32;91.69238;983.5277;;;;
2019/11/02 07:17:59;;;;;;;0.6;0.6;;;;;;;15.41;90.61328;983.4922;;;;
2019/11/02 07:20:24;;;;;;;3.8;0.8;;;;;;;15.32;91.21973;983.5356;;;;
2019/11/02 07:22:49;;;;;;;0.9;0.6;;;;;;;15.42;90.92676;983.5661;;;;
2019/11/02 07:25:14;;;;;;;1.2;0.8;;;;;;;15.4;90.85352;983.6013;;;;
2019/11/02 07:27:39;;;;;;;1.3;0.8;;;;;;;15.33;91.25488;983.6481;;;;
2019/11/02 07:30:04;;;;;;;1.2;0.8;;;;;;;15.5;90.17871;983.6572;;;;
2019/11/02 07:32:29;;;;;;;1.3;0.7;;;;;;;15.52;89.91797;983.7242;;;;
2019/11/02 07:34:54;;;;;;;1.4;0.8;;;;;;;15.57;90.03125;983.7542;;;;
2019/11/02 07:37:20;;;;;;;1.2;0.8;;;;;;;15.46;90.5752;983.7018;;;;
2019/11/02 07:39:45;;;;;;;1.4;0.8;;;;;;;15.4;90.8418;983.6785;;;;
2019/11/02 07:42:10;;;;;;;0.9;0.8;;;;;;;15.41;90.9248;983.6774;;;;
2019/11/02 07:44:35;;;;;;;1.4;0.7;;;;;;;15.49;90.3623;983.6646;;;;
2019/11/02 07:47:00;;;;;;;1.2;0.9;;;;;;;15.57;89.85742;983.6671;;;;
2019/11/02 07:49:25;;;;;;;1.6;0.7;;;;;;;15.62;89.54492;983.6474;;;;
2019/11/02 07:51:51;;;;;;;0.6;0.6;;;;;;;15.62;89.97168;983.6633;;;;
2019/11/02 07:54:16;;;;;;;0.7;0.7;;;;;;;15.63;89.88086;983.6333;;;;
2019/11/02 07:56:41;;;;;;;0.8;0.5;;;;;;;15.65;90.05957;983.5928;;;;
2019/11/02 07:59:06;;;;;;;0.5;0.5;;;;;;;15.7;89.74707;983.5936;;;;
2019/11/02 08:01:31;;;;;;;1.8;1.1;;;;;;;15.52;90.95801;983.5652;;;;
2019/11/02 08:03:56;;;;;;;0.9;0.6;;;;;;;15.63;90.26465;983.5503;;;;
2019/11/02 08:06:21;;;;;;;0.9;0.6;;;;;;;15.58;90.33496;983.6094;;;;
2019/11/02 08:08:47;;;;;;;0.6;0.6;;;;;;;15.64;89.83789;983.5605;;;;
2019/11/02 08:11:12;;;;;;;0.9;0.6;;;;;;;15.73;89.29883;983.5578;;;;
2019/11/02 08:13:37;;;;;;;1.3;0.6;;;;;;;15.78;88.56836;983.6035;;;;
2019/11/02 08:16:02;;;;;;;1.6;0.5;;;;;;;15.78;88.62793;983.6046;;;;
2019/11/02 08:18:27;;;;;;;1.8;0.7;;;;;;;15.93;87.9502;983.7473;;;;
2019/11/02 08:20:53;;;;;;;0.6;0.6;;;;;;;15.87;88.13574;983.5887;;;;
2019/11/02 08:23:18;;;;;;;0.6;0.6;;;;;;;15.91;88.375;983.6495;;;;
2019/11/02 08:25:43;;;;;;;0.7;0.6;;;;;;;15.84;89.11426;983.6556;;;;
2019/11/02 08:28:08;;;;;;;1.2;0.6;;;;;;;15.84;88.84766;983.5754;;;;
2019/11/02 08:30:33;;;;;;;1.5;0.9;;;;;;;15.92;88.62012;983.6592;;;;
2019/11/02 08:32:58;;;;;;;1.1;0.7;;;;;;;15.87;88.92188;983.6869;;;;
2019/11/02 08:35:23;;;;;;;1;0.5;;;;;;;15.87;88.79492;983.6735;;;;
2019/11/02 08:37:49;;;;;;;1.1;0.7;;;;;;;15.96;88.14258;983.7449;;;;
2019/11/02 08:40:14;;;;;;;1.4;0.8;;;;;;;16.06;87.48828;983.7535;;;;
2019/11/02 08:42:39;;;;;;;0.7;0.6;;;;;;;16.19;86.96875;983.7235;;;;
2019/11/02 08:45:05;;;;;;;1.9;0.6;;;;;;;16.28;86.44141;983.7092;;;;
2019/11/02 08:47:30;;;;;;;2;0.8;;;;;;;16.38;85.97363;983.6802;;;;
2019/11/02 08:49:55;;;;;;;0.6;0.6;;;;;;;16.61;84.98633;983.6495;;;;
2019/11/02 08:52:20;;;;;;;2;0.8;;;;;;;16.59;84.14648;983.6172;;;;
2019/11/02 08:54:45;;;;;;;0.6;0.5;;;;;;;16.57;84.36426;983.6088;;;;
2019/11/02 08:57:11;;;;;;;1.5;0.6;;;;;;;16.59;84.19336;983.6633;;;;
2019/11/02 08:59:36;;;;;;;0.7;0.6;;;;;;;16.37;86.44922;983.7294;;;;
2019/11/02 09:02:01;;;;;;;0.9;0.7;;;;;;;16.36;86.77051;983.7358;;;;
2019/11/02 09:04:26;;;;;;;1.7;0.9;;;;;;;16.26;86.85645;983.7159;;;;
2019/11/02 09:06:51;;;;;;;0.8;0.7;;;;;;;16.21;87.55371;983.7229;;;;
2019/11/02 09:09:16;;;;;;;2.3;1.1;;;;;;;16.33;86.88281;983.7864;;;;
2019/11/02 09:11:41;;;;;;;0.7;0.7;;;;;;;16.23;86.83789;983.7683;;;;
2019/11/02 09:14:07;;;;;;;2.4;0.7;;;;;;;16.3;86.75977;983.7019;;;;
2019/11/02 09:16:32;;;;;;;0.9;0.7;;;;;;;16.3;86.65527;983.6478;;;;
2019/11/02 09:18:57;;;;;;;0.8;0.6;;;;;;;;;;;;;
2019/11/02 09:21:22;;;;;;;1.1;0.6;;;;;;;;;;;;;
2019/11/02 09:23:47;;;;;;;1.2;0.7;;;;;;;;;;;;;
2019/11/02 09:26:12;;;;;;;1.3;0.5;;;;;;;;;;;;;
2019/11/02 09:28:37;;;;;;;1.1;0.6;;;;;;;;;;;;;
2019/11/02 09:31:03;;;;;;;0.9;0.6;;;;;;;;;;;;;
2019/11/02 09:33:28;;;;;;;0.6;0.6;;;;;;;;;;;;;
2019/11/02 09:35:53;;;;;;;2.4;0.6;;;;;;;;;;;;;
2019/11/02 09:38:18;;;;;;;0.5;0.5;;;;;;;;;;;;;
2019/11/02 09:40:43;;;;;;;2;0.7;;;;;;;;;;;;;
2019/11/02 09:43:08;;;;;;;0.7;0.6;;;;;;;;;;;;;
2019/11/02 09:45:33;;;;;;;1.1;0.7;;;;;;;;;;;;;
2019/11/02 09:47:58;;;;;;;1.3;0.7;;;;;;;;;;;;;
2019/11/02 09:50:23;;;;;;;0.5;0.5;;;;;;;;;;;;;
2019/11/02 09:52:48;;;;;;;1.3;0.6;;;;;;;;;;;;;
2019/11/02 09:55:14;;;;;;;1;0.6;;;;;;;;;;;;;
2019/11/02 09:57:39;;;;;;;0.6;0.6;;;;;;;;;;;;;
2019/11/02 10:00:04;;;;;;;0.7;0.5;;;;;;;;;;;;;
2019/11/02 10:02:29;;;;;;;0.6;0.6;;;;;;;;;;;;;
2019/11/02 10:04:54;;;;;;;0.8;0.6;;;;;;;;;;;;;
2019/11/02 10:07:19;;;;;;;0.8;0.6;;;;;;;;;;;;;
2019/11/02 10:09:44;;;;;;;0.8;0.7;;;;;;;;;;;;;
2019/11/02 10:12:09;;;;;;;1.6;0.7;;;;;;;;;;;;;
2019/11/02 10:14:35;;;;;;;0.7;0.7;;;;;;;;;;;;;
2019/11/02 10:17:00;;;;;;;1.6;0.6;;;;;;;;;;;;;
2019/11/02 10:19:25;;;;;;;0.6;0.5;;;;;;;;;;;;;
2019/11/02 10:21:50;;;;;;;0.6;0.6;;;;;;;;;;;;;
2019/11/02 10:24:15;;;;;;;0.5;0.5;;;;;;;;;;;;;
2019/11/02 10:26:40;;;;;;;0.9;0.6;;;;;;;;;;;;;
2019/11/02 10:29:05;;;;;;;1;0.6;;;;;;;;;;;;;
2019/11/02 10:31:31;;;;;;;0.5;0.5;;;;;;;;;;;;;
2019/11/02 10:33:56;;;;;;;0.6;0.6;;;;;;;;;;;;;
2019/11/02 10:36:21;;;;;;;1.1;0.6;;;;;;;;;;;;;
2019/11/02 10:38:46;;;;;;;0.6;0.6;;;;;;;;;;;;;
2019/11/02 10:41:11;;;;;;;1.7;0.7;;;;;;;;;;;;;
2019/11/02 10:43:36;;;;;;;0.6;0.6;;;;;;;;;;;;;
2019/11/02 10:46:01;;;;;;;1.3;0.6;;;;;;;;;;;;;
2019/11/02 10:48:27;;;;;;;0.7;0.5;;;;;;;;;;;;;
2019/11/02 10:50:52;;;;;;;2.1;0.7;;;;;;;;;;;;;
2019/11/02 10:53:17;;;;;;;1.2;0.7;;;;;;;;;;;;;
2019/11/02 10:55:42;;;;;;;2.3;0.7;;;;;;;;;;;;;
2019/11/02 10:58:07;;;;;;;0.5;0.4;;;;;;;;;;;;;
2019/11/02 11:00:32;;;;;;;1.1;0.5;;;;;;;;;;;;;
2019/11/02 11:02:57;;;;;;;0.9;0.5;;;;;;;;;;;;;
2019/11/02 11:05:23;;;;;;;0.9;0.6;;;;;;;;;;;;;
2019/11/02 11:07:48;;;;;;;1.1;0.6;;;;;;;;;;;;;
2019/11/02 11:10:13;;;;;;;1.3;0.5;;;;;;;;;;;;;
2019/11/02 11:12:38;;;;;;;0.7;0.5;;;;;;;;;;;;;
2019/11/02 11:15:03;;;;;;;1.6;0.6;;;;;;;;;;;;;
2019/11/02 11:17:29;;;;;;;1.1;0.6;;;;;;;;;;;;;
2019/11/02 11:19:54;;;;;;;0.9;0.6;;;;;;;;;;;;;
2019/11/02 11:22:37;;;;;;;0.8;0.6;;;;;;;;;;;;;
2019/11/02 11:24:44;;;;;;;0.6;0.6;;;;;;;;;;;;;
2019/11/02 11:27:09;;;;;;;0.9;0.7;;;;;;;;;;;;;
2019/11/02 11:29:34;;;;;;;0.8;0.6;;;;;;;;;;;;;
2019/11/02 11:31:59;;;;;;;1.5;0.6;;;;;;;;;;;;;
2019/11/02 11:34:24;;;;;;;1.5;0.7;;;;;;;;;;;;;
2019/11/02 11:36:49;;;;;;;0.5;0.5;;;;;;;;;;;;;
2019/11/02 11:39:15;;;;;;;0.8;0.6;;;;;;;;;;;;;
2019/11/02 11:41:40;;;;;;;0.7;0.6;;;;;;;;;;;;;
2019/11/02 11:44:05;;;;;;;1.9;0.7;;;;;;;;;;;;;
2019/11/02 11:46:30;;;;;;;1;0.8;;;;;;;;;;;;;
2019/11/02 11:48:55;;;;;;;1.2;0.7;;;;;;;;;;;;;
2019/11/02 11:51:21;;;;;;;1.7;0.7;;;;;;;;;;;;;
2019/11/02 11:53:46;;;;;;;1.2;0.6;;;;;;;;;;;;;
2019/11/02 11:56:11;;;;;;;1.2;0.7;;;;;;;;;;;;;
2019/11/02 11:58:36;;;;;;;0.6;0.6;;;;;;;;;;;;;
2019/11/02 12:01:01;;;;;;;2.9;1;;;;;;;;;;;;;
2019/11/02 12:03:26;;;;;;;1.6;0.8;;;;;;;;;;;;;
2019/11/02 12:05:51;;;;;;;1.6;0.9;;;;;;;;;;;;;
2019/11/02 12:08:16;;;;;;;1.5;0.8;;;;;;;;;;;;;
2019/11/02 12:10:41;;;;;;;1.2;0.9;;;;;;;;;;;;;
2019/11/02 12:13:06;;;;;;;1.1;0.7;;;;;;;;;;;;;
2019/11/02 12:15:32;;;;;;;0.9;0.7;;;;;;;;;;;;;
2019/11/02 12:17:57;;;;;;;1.9;0.7;;;;;;;;;;;;;
2019/11/02 12:20:22;;;;;;;1.5;0.6;;;;;;;;;;;;;
2019/11/02 12:22:47;;;;;;;1.4;0.7;;;;;;;;;;;;;
2019/11/02 12:25:12;;;;;;;3.9;1;;;;;;;;;;;;;
2019/11/02 12:30:02;;;;;;;0.9;0.6;;;;;;;;;;;;;
2019/11/02 12:32:27;;;;;;;1.2;0.7;;;;;;;;;;;;;
2019/11/02 12:34:52;;;;;;;0.9;0.6;;;;;;;;;;;;;
2019/11/02 12:37:17;;;;;;;0.8;0.7;;;;;;;;;;;;;
2019/11/02 12:39:42;;;;;;;0.9;0.7;;;;;;;;;;;;;
2019/11/02 12:42:08;;;;;;;1.6;0.7;;;;;;;;;;;;;
2019/11/02 12:44:33;;;;;;;1.8;0.9;;;;;;;;;;;;;
2019/11/02 12:46:58;;;;;;;1.7;0.6;;;;;;;;;;;;;
2019/11/02 12:49:23;;;;;;;0.8;0.6;;;;;;;;;;;;;
2019/11/02 12:51:48;;;;;;;0.9;0.8;;;;;;;;;;;;;
2019/11/02 12:54:13;;;;;;;1.7;0.7;;;;;;;;;;;;;
2019/11/02 12:56:38;;;;;;;3.4;1;;;;;;;;;;;;;
2019/11/02 12:59:03;;;;;;;1.2;0.6;;;;;;;;;;;;;
2019/11/02 13:01:29;;;;;;;0.9;0.8;;;;;;;;;;;;;
2019/11/02 13:03:53;;;;;;;0.9;0.7;;;;;;;;;;;;;
2019/11/02 13:06:19;;;;;;;0.9;0.6;;;;;;;;;;;;;
2019/11/02 13:08:44;;;;;;;1.1;0.6;;;;;;;;;;;;;
2019/11/02 13:11:09;;;;;;;0.6;0.6;;;;;;;;;;;;;
2019/11/02 13:13:34;;;;;;;0.8;0.7;;;;;;;;;;;;;
2019/11/02 13:15:59;;;;;;;0.9;0.7;;;;;;;;;;;;;
2019/11/02 13:18:24;;;;;;;1.2;0.7;;;;;;;;;;;;;
2019/11/02 13:20:49;;;;;;;0.8;0.5;;;;;;;;;;;;;
2019/11/02 13:23:14;;;;;;;1;0.6;;;;;;;;;;;;;
2019/11/02 13:25:40;;;;;;;0.9;0.7;;;;;;;;;;;;;
2019/11/02 13:28:05;;;;;;;0.5;0.5;;;;;;;;;;;;;
2019/11/02 13:30:30;;;;;;;1.2;0.7;;;;;;;;;;;;;
2019/11/02 13:32:55;;;;;;;0.7;0.7;;;;;;;;;;;;;
2019/11/02 13:35:20;;;;;;;0.8;0.5;;;;;;;;;;;;;
2019/11/02 13:37:45;;;;;;;0.6;0.6;;;;;;;;;;;;;
2019/11/02 13:40:10;;;;;;;0.9;0.7;;;;;;;;;;;;;
2019/11/02 13:42:35;;;;;;;1.5;0.5;;;;;;;;;;;;;
2019/11/02 13:45:00;;;;;;;3.1;0.6;;;;;;;;;;;;;
2019/11/02 13:47:25;;;;;;;1.1;0.6;;;;;;;;;;;;;
2019/11/02 13:49:50;;;;;;;0.5;0.5;;;;;;;;;;;;;
2019/11/02 13:52:16;;;;;;;0.7;0.7;;;;;;;;;;;;;
2019/11/02 13:54:41;;;;;;;0.6;0.6;;;;;;;;;;;;;
2019/11/02 13:57:06;;;;;;;0.7;0.6;;;;;;;;;;;;;
2019/11/02 13:59:31;;;;;;;5;0.7;;;;;;;;;;;;;
2019/11/02 14:01:56;;;;;;;1.6;0.8;;;;;;;;;;;;;
2019/11/02 14:04:21;;;;;;;1;0.6;;;;;;;;;;;;;
2019/11/02 14:06:46;;;;;;;2.9;0.6;;;;;;;;;;;;;
2019/11/02 14:09:11;;;;;;;0.9;0.6;;;;;;;;;;;;;
2019/11/02 14:11:36;;;;;;;1;0.7;;;;;;;;;;;;;
2019/11/02 14:14:02;;;;;;;1.3;0.7;;;;;;;;;;;;;
2019/11/02 14:16:48;;;;;;;0.7;0.5;;;;;;;;;;;;;
2019/11/02 14:18:52;;;;;;;0.5;0.5;;;;;;;;;;;;;
2019/11/02 14:21:17;;;;;;;0.5;0.5;;;;;;;;;;;;;
2019/11/02 14:23:42;;;;;;;0.7;0.5;;;;;;;;;;;;;
2019/11/02 14:26:07;;;;;;;0.9;0.7;;;;;;;;;;;;;
2019/11/02 14:28:32;;;;;;;0.7;0.7;;;;;;;;;;;;;
2019/11/02 14:30:57;;;;;;;1;0.6;;;;;;;;;;;;;
2019/11/02 14:33:22;;;;;;;2.5;1.1;;;;;;;;;;;;;
2019/11/02 14:35:47;;;;;;;1;0.6;;;;;;;;;;;;;
2019/11/02 14:38:13;;;;;;;0.9;0.5;;;;;;;;;;;;;
2019/11/02 14:40:38;;;;;;;1.5;0.8;;;;;;;;;;;;;
2019/11/02 14:43:03;;;;;;;0.7;0.6;;;;;;;;;;;;;
2019/11/02 14:45:28;;;;;;;1;0.5;;;;;;;;;;;;;
2019/11/02 14:47:53;;;;;;;1.5;0.7;;;;;;;;;;;;;
2019/11/02 14:50:18;;;;;;;1.9;0.8;;;;;;;;;;;;;
2019/11/02 14:52:43;;;;;;;0.9;0.7;;;;;;;;;;;;;
2019/11/02 14:55:09;;;;;;;0.5;0.5;;;;;;;;;;;;;
2019/11/02 14:57:34;;;;;;;1.4;0.6;;;;;;;;;;;;;
2019/11/02 14:59:59;;;;;;;0.9;0.6;;;;;;;;;;;;;
2019/11/02 15:02:24;;;;;;;1.8;0.7;;;;;;;;;;;;;
2019/11/02 15:04:49;;;;;;;1.9;0.7;;;;;;;;;;;;;
2019/11/02 15:07:14;;;;;;;1;0.8;;;;;;;;;;;;;
2019/11/02 15:09:39;;;;;;;2.5;0.9;;;;;;;;;;;;;
2019/11/02 15:12:04;;;;;;;1.1;0.6;;;;;;;;;;;;;
2019/11/02 15:14:29;;;;;;;2.4;1;;;;;;;;;;;;;
2019/11/02 15:16:54;;;;;;;1.3;0.6;;;;;;;;;;;;;
2019/11/02 15:19:20;;;;;;;0.9;0.8;;;;;;;;;;;;;
2019/11/02 15:21:45;;;;;;;2.1;0.8;;;;;;;;;;;;;
2019/11/02 15:24:10;;;;;;;1.6;0.7;;;;;;;;;;;;;
2019/11/02 15:26:35;;;;;;;1;0.7;;;;;;;;;;;;;
2019/11/02 15:29:00;;;;;;;1.3;1;;;;;;;;;;;;;
2019/11/02 15:31:25;;;;;;;1.6;1;;;;;;;;;;;;;
2019/11/02 15:33:50;;;;;;;1.2;0.6;;;;;;;;;;;;;
2019/11/02 15:36:15;;;;;;;1.9;0.9;;;;;;;;;;;;;
2019/11/02 15:38:40;;;;;;;1.2;0.8;;;;;;;;;;;;;
2019/11/02 15:41:06;;;;;;;0.7;0.7;;;;;;;;;;;;;
2019/11/02 15:43:31;;;;;;;0.8;0.7;;;;;;;;;;;;;
2019/11/02 15:45:56;;;;;;;1.7;0.9;;;;;;;;;;;;;
2019/11/02 15:48:21;;;;;;;3;1;;;;;;;;;;;;;
2019/11/02 15:50:46;;;;;;;1.7;1.1;;;;;;;;;;;;;
2019/11/02 15:53:12;;;;;;;1.6;1.2;;;;;;;;;;;;;
2019/11/02 15:55:37;;;;;;;1;0.8;;;;;;;;;;;;;
2019/11/02 15:58:02;;;;;;;2.2;1.1;;;;;;;;;;;;;
2019/11/02 16:00:27;;;;;;;1.3;1.1;;;;;;;;;;;;;
2019/11/02 16:02:52;;;;;;;2.7;1;;;;;;;;;;;;;
2019/11/02 16:05:17;;;;;;;1.3;1;;;;;;;;;;;;;
2019/11/02 16:07:42;;;;;;;2;1.1;;;;;;;;;;;;;
2019/11/02 16:10:07;;;;;;;1.9;1.2;;;;;;;;;;;;;
2019/11/02 16:12:32;;;;;;;1.2;1;;;;;;;;;;;;;
2019/11/02 16:14:57;;;;;;;1.6;1;;;;;;;;;;;;;
2019/11/02 16:17:23;;;;;;;2.3;1.3;;;;;;;;;;;;;
2019/11/02 16:19:48;;;;;;;3;1.2;;;;;;;;;;;;;
2019/11/02 16:22:13;;;;;;;1.8;1;;;;;;;;;;;;;
2019/11/02 16:24:38;;;;;;;1.6;1.1;;;;;;;;;;;;;
2019/11/02 16:27:03;;;;;;;1.9;1.1;;;;;;;;;;;;;
2019/11/02 16:29:28;;;;;;;1.7;1.1;;;;;;;;;;;;;
2019/11/02 16:31:53;;;;;;;3.2;1;;;;;;;;;;;;;
2019/11/02 16:34:18;;;;;;;2;1.2;;;;;;;;;;;;;
2019/11/02 16:36:43;;;;;;;1.8;1.2;;;;;;;;;;;;;
2019/11/02 16:39:08;;;;;;;3;1.5;;;;;;;;;;;;;
2019/11/02 16:41:34;;;;;;;1.5;1.2;;;;;;;;;;;;;
2019/11/02 16:43:59;;;;;;;2;1.2;;;;;;;;;;;;;
2019/11/02 16:46:24;;;;;;;2.8;1.5;;;;;;;;;;;;;
2019/11/02 16:48:49;;;;;;;2.4;1.6;;;;;;;;;;;;;
2019/11/02 16:51:14;;;;;;;2.4;1.4;;;;;;;;;;;;;
2019/11/02 16:53:39;;;;;;;2.8;1.6;;;;;;;;;;;;;
2019/11/02 16:56:04;;;;;;;2.8;1.6;;;;;;;;;;;;;
2019/11/02 16:58:29;;;;;;;3;1.6;;;;;;;;;;;;;
2019/11/02 17:00:55;;;;;;;2.9;1.6;;;;;;;;;;;;;
2019/11/02 17:03:20;;;;;;;3;1.7;;;;;;;;;;;;;
2019/11/02 17:05:45;;;;;;;2.6;1.7;;;;;;;;;;;;;
2019/11/02 17:08:10;;;;;;;2.5;1.6;;;;;;;;;;;;;
2019/11/02 17:10:35;;;;;;;2.2;1.5;;;;;;;;;;;;;
2019/11/02 17:13:00;;;;;;;2.2;1.4;;;;;;;;;;;;;
2019/11/02 17:15:25;;;;;;;1.8;1.3;;;;;;;;;;;;;
2019/11/02 17:17:50;;;;;;;3.8;1.9;;;;;;;;;;;;;
2019/11/02 17:20:15;;;;;;;3.8;2;;;;;;;;;;;;;
2019/11/02 17:22:41;;;;;;;3.4;1.8;;;;;;;;;;;;;
2019/11/02 17:25:06;;;;;;;3.8;2.1;;;;;;;;;;;;;
2019/11/02 17:27:31;;;;;;;3.2;1.5;;;;;;;;;;;;;
2019/11/02 17:29:56;;;;;;;4.1;2;;;;;;;;;;;;;
2019/11/02 17:32:21;;;;;;;3;1.7;;;;;;;;;;;;;
2019/11/02 17:34:46;;;;;;;3.6;1.8;;;;;;;;;;;;;
2019/11/02 17:37:11;;;;;;;2.9;1.6;;;;;;;;;;;;;
2019/11/02 17:39:36;;;;;;;3.9;1.8;;;;;;;;;;;;;
2019/11/02 17:42:01;;;;;;;2.2;1.5;;;;;;;;;;;;;
2019/11/02 17:44:26;;;;;;;2.4;1.4;;;;;;;;;;;;;
2019/11/02 17:46:52;;;;;;;3.6;1.9;;;;;;;;;;;;;
2019/11/02 17:49:17;;;;;;;4.5;2.2;;;;;;;;;;;;;
2019/11/02 17:51:42;;;;;;;3.7;2.1;;;;;;;;;;;;;
2019/11/02 17:54:07;;;;;;;4.1;2.1;;;;;;;;;;;;;
2019/11/02 17:56:32;;;;;;;3.3;2;;;;;;;;;;;;;
2019/11/02 17:58:57;;;;;;;3.4;2.1;;;;;;;;;;;;;
2019/11/02 18:01:22;;;;;;;2.9;1.9;;;;;;;;;;;;;
2019/11/02 18:03:48;;;;;;;4.6;2;;;;;;;;;;;;;
2019/11/02 18:06:13;;;;;;;5;2.1;;;;;;;;;;;;;
2019/11/02 18:08:38;;;;;;;2.7;1.9;;;;;;;;;;;;;
2019/11/02 18:11:03;;;;;;;2.9;1.9;;;;;;;;;;;;;
2019/11/02 18:13:28;;;;;;;2.9;2.1;;;;;;;;;;;;;
2019/11/02 18:15:53;;;;;;;5.3;2.2;;;;;;;;;;;;;
2019/11/02 18:18:18;;;;;;;3.5;2.3;;;;;;;;;;;;;
2019/11/02 18:20:43;;;;;;;4.4;2.2;;;;;;;;;;;;;
2019/11/02 18:23:09;;;;;;;5;2.6;;;;;;;;;;;;;